Time;durP1;ratioP1;P1;durP2;ratioP2;P2;SDS_P1;SDS_P2;PMS_P1;PMS_P2;Temp;Humidity;BMP_temperature;BMP_pressure;BME280_temperature;BME280_humidity;BME280_pressure;Samples;Min_cycle;Max_cycle;Signal;HPM_P1;HPM_P2
2021/08/05 00:06:13;;;;;;;;;;;21.00;64.50;;;;;;20890815;28;19920;-73
2021/08/05 00:16:14;;;;;;;;;;;20.90;64.50;;;;;;20906820;28;19938;-74
2021/08/05 00:26:14;;;;;;;;;;;20.90;64.50;;;;;;20905921;28;19921;-73
2021/08/05 00:36:15;;;;;;;;;;;20.90;64.50;;;;;;20905310;28;19913;-72
2021/08/05 00:46:16;;;;;;;;;;;20.90;64.50;;;;;;20871841;28;20286;-73
2021/08/05 00:56:16;;;;;;;;;;;20.90;64.50;;;;;;20887434;28;19912;-74
2021/08/05 01:06:26;;;;;;;;;;;20.90;64.50;;;;;;20887323;28;20455;-73
2021/08/05 01:16:30;;;;;;;;;;;20.90;64.40;;;;;;20905123;28;20282;-73
2021/08/05 01:26:31;;;;;;;;;;;20.90;64.40;;;;;;20887108;28;19917;-74
2021/08/05 01:36:31;;;;;;;;;;;20.90;64.40;;;;;;20904151;28;19909;-74
2021/08/05 01:46:33;;;;;;;;;;;20.90;64.40;;;;;;20885861;28;19924;-73
2021/08/05 01:56:34;;;;;;;;;;;20.90;64.40;;;;;;20885405;28;20396;-74
2021/08/05 02:06:36;;;;;;;;;;;20.90;64.40;;;;;;20897204;28;19921;-73
2021/08/05 02:16:38;;;;;;;;;;;20.70;64.30;;;;;;20899488;28;19909;-73
2021/08/05 02:26:39;;;;;;;;;;;20.80;64.40;;;;;;20898239;28;20367;-73
2021/08/05 02:36:40;;;;;;;;;;;20.80;64.30;;;;;;20881613;28;19998;-73
2021/08/05 02:46:41;;;;;;;;;;;20.80;64.40;;;;;;20897270;28;19959;-73
2021/08/05 02:56:41;;;;;;;;;;;20.70;64.30;;;;;;20896231;28;19916;-74
2021/08/05 03:06:42;;;;;;;;;;;20.80;64.30;;;;;;20895659;28;19928;-74
2021/08/05 03:16:42;;;;;;;;;;;20.80;64.30;;;;;;20877654;28;19913;-73
2021/08/05 03:26:43;;;;;;;;;;;20.80;64.30;;;;;;20877564;28;19978;-74
2021/08/05 03:36:43;;;;;;;;;;;20.80;64.30;;;;;;20909696;28;20263;-72
2021/08/05 03:46:44;;;;;;;;;;;20.80;64.20;;;;;;20908260;28;19924;-75
2021/08/05 03:56:44;;;;;;;;;;;20.70;64.20;;;;;;20892663;28;20412;-73
2021/08/05 04:06:45;;;;;;;;;;;20.80;64.20;;;;;;20891305;28;19917;-70
2021/08/05 04:16:45;;;;;;;;;;;20.70;64.10;;;;;;20907623;28;19939;-77
2021/08/05 04:26:46;;;;;;;;;;;20.70;64.20;;;;;;20888333;28;19923;-75
2021/08/05 04:36:46;;;;;;;;;;;20.70;64.10;;;;;;20888634;28;19919;-74
2021/08/05 04:46:47;;;;;;;;;;;20.70;64.20;;;;;;20905109;28;19920;-74
2021/08/05 04:56:47;;;;;;;;;;;20.70;64.10;;;;;;20887942;28;19909;-74
2021/08/05 05:06:48;;;;;;;;;;;20.70;64.10;;;;;;20905809;28;19939;-74
2021/08/05 05:16:48;;;;;;;;;;;20.70;64.10;;;;;;20887971;28;19909;-74
2021/08/05 05:26:49;;;;;;;;;;;20.60;64.10;;;;;;20903649;28;19967;-76
2021/08/05 05:36:50;;;;;;;;;;;20.70;64.10;;;;;;20892926;28;19963;-75
2021/08/05 05:46:50;;;;;;;;;;;20.70;64.20;;;;;;20901785;28;19913;-75
2021/08/05 05:56:51;;;;;;;;;;;20.70;64.10;;;;;;20901170;28;20007;-74
2021/08/05 06:06:51;;;;;;;;;;;20.70;64.10;;;;;;20900169;28;19921;-74
2021/08/05 06:16:52;;;;;;;;;;;20.70;64.10;;;;;;20917569;28;19909;-74
2021/08/05 06:26:52;;;;;;;;;;;20.70;64.20;;;;;;20899212;28;19921;-74
2021/08/05 06:36:53;;;;;;;;;;;20.70;64.10;;;;;;20914633;28;19915;-74
2021/08/05 06:46:53;;;;;;;;;;;20.80;64.10;;;;;;20896339;28;19920;-75
2021/08/05 06:56:54;;;;;;;;;;;20.80;64.10;;;;;;20913239;28;19928;-74
2021/08/05 07:06:54;;;;;;;;;;;20.80;64.10;;;;;;20896470;28;19920;-74
2021/08/05 07:16:55;;;;;;;;;;;20.80;64.00;;;;;;20894995;28;19935;-74
2021/08/05 07:26:55;;;;;;;;;;;20.80;64.00;;;;;;20894147;28;19963;-74
2021/08/05 07:36:56;;;;;;;;;;;20.90;64.00;;;;;;20893282;28;19908;-73
2021/08/05 07:46:56;;;;;;;;;;;20.80;63.80;;;;;;20892136;28;20306;-74
2021/08/05 07:56:57;;;;;;;;;;;20.90;63.80;;;;;;20891666;28;19935;-75
2021/08/05 08:06:59;;;;;;;;;;;20.90;63.80;;;;;;20890722;28;20367;-74
2021/08/05 08:17:00;;;;;;;;;;;20.90;63.70;;;;;;20908434;28;19916;-74
2021/08/05 08:27:00;;;;;;;;;;;20.90;63.70;;;;;;20888936;28;19917;-74
2021/08/05 08:37:01;;;;;;;;;;;21.00;63.80;;;;;;20905456;28;19912;-74
2021/08/05 08:47:02;;;;;;;;;;;20.90;63.70;;;;;;20888234;28;20417;-75
2021/08/05 08:57:03;;;;;;;;;;;20.90;63.70;;;;;;20887863;28;19909;-75
2021/08/05 09:07:03;;;;;;;;;;;20.90;63.70;;;;;;20887619;28;19917;-74
2021/08/05 09:17:23;;;;;;;;;;;20.90;63.70;;;;;;20919122;28;19955;-74
2021/08/05 09:27:32;;;;;;;;;;;20.90;63.70;;;;;;20903020;28;19960;-74
2021/08/05 09:37:33;;;;;;;;;;;21.00;63.60;;;;;;20902258;28;19913;-75
2021/08/05 09:47:41;;;;;;;;;;;21.00;63.60;;;;;;21301193;22;19930;-77
2021/08/05 09:57:42;;;;;;;;;;;21.00;63.50;;;;;;20746915;28;19913;-78
2021/08/05 10:07:46;;;;;;;;;;;21.10;63.50;;;;;;20753631;28;20420;-77
2021/08/05 10:17:49;;;;;;;;;;;21.10;63.50;;;;;;20737295;28;20013;-79
2021/08/05 10:27:50;;;;;;;;;;;21.10;63.40;;;;;;20718623;28;20334;-77
2021/08/05 10:37:50;;;;;;;;;;;21.10;63.40;;;;;;20751888;28;19917;-78
2021/08/05 10:47:53;;;;;;;;;;;21.10;63.40;;;;;;20734407;28;19918;-78
2021/08/05 10:58:12;;;;;;;;;;;21.10;63.30;;;;;;20751337;28;20427;-78
2021/08/05 11:08:13;;;;;;;;;;;21.00;63.20;;;;;;20749407;28;19956;-78
2021/08/05 11:18:17;;;;;;;;;;;21.20;63.40;;;;;;20751272;28;19918;-77
2021/08/05 11:28:36;;;;;;;;;;;21.20;63.30;;;;;;20715919;28;19960;-78
2021/08/05 11:38:56;;;;;;;;;;;21.10;63.20;;;;;;20746365;28;19914;-78
2021/08/05 11:48:57;;;;;;;;;;;21.20;63.20;;;;;;20746247;28;19918;-77
2021/08/05 11:58:57;;;;;;;;;;;21.20;63.20;;;;;;20729054;28;19931;-78
2021/08/05 12:09:13;;;;;;;;;;;21.20;63.30;;;;;;20729360;28;19917;-78
2021/08/05 12:19:14;;;;;;;;;;;21.30;63.30;;;;;;20727509;28;19953;-78
2021/08/05 12:29:15;;;;;;;;;;;21.30;63.30;;;;;;20743569;28;20283;-79
2021/08/05 12:39:22;;;;;;;;;;;21.30;63.30;;;;;;20726800;28;19914;-78
2021/08/05 12:49:28;;;;;;;;;;;21.20;63.20;;;;;;20708946;28;20016;-79
2021/08/05 12:59:57;;;;;;;;;;;21.30;63.30;;;;;;20741991;28;20295;-79
2021/08/05 13:09:58;;;;;;;;;;;21.30;63.20;;;;;;20722541;28;19913;-79
2021/08/05 13:20:01;;;;;;;;;;;21.30;63.30;;;;;;20724812;28;20364;-78
2021/08/05 13:30:14;;;;;;;;;;;21.30;63.20;;;;;;20724887;28;19959;-78
2021/08/05 13:40:15;;;;;;;;;;;21.30;63.20;;;;;;20740630;28;19913;-78
2021/08/05 13:50:15;;;;;;;;;;;21.30;63.30;;;;;;20740790;28;19940;-78
2021/08/05 14:00:16;;;;;;;;;;;21.30;63.20;;;;;;20751318;28;20482;-78
2021/08/05 14:10:18;;;;;;;;;;;21.40;63.30;;;;;;20754663;28;20346;-78
2021/08/05 14:20:19;;;;;;;;;;;21.30;63.30;;;;;;20721478;28;19917;-77
2021/08/05 14:30:19;;;;;;;;;;;21.30;63.40;;;;;;20754462;28;19917;-78
2021/08/05 14:40:20;;;;;;;;;;;21.20;63.40;;;;;;20737220;28;19961;-77
2021/08/05 14:50:20;;;;;;;;;;;21.20;63.50;;;;;;20752468;28;19952;-79
2021/08/05 15:00:21;;;;;;;;;;;21.20;63.60;;;;;;20734720;28;19913;-78
2021/08/05 15:10:22;;;;;;;;;;;21.20;63.70;;;;;;20732994;28;20287;-78
2021/08/05 15:20:22;;;;;;;;;;;21.20;63.80;;;;;;20733473;28;20020;-78
2021/08/05 15:30:23;;;;;;;;;;;21.20;63.90;;;;;;20748374;28;19920;-79
2021/08/05 15:40:23;;;;;;;;;;;21.20;63.90;;;;;;20748530;28;20482;-79
2021/08/05 15:50:24;;;;;;;;;;;21.20;64.00;;;;;;20714294;28;19961;-79
2021/08/05 16:00:24;;;;;;;;;;;21.20;64.00;;;;;;20747934;28;19984;-83
2021/08/05 16:10:25;;;;;;;;;;;21.20;64.00;;;;;;20714806;28;19913;-80
2021/08/05 16:20:25;;;;;;;;;;;21.30;64.60;;;;;;20714398;28;20380;-80
2021/08/05 16:30:26;;;;;;;;;;;21.30;65.30;;;;;;20745478;28;19968;-80
2021/08/05 16:40:27;;;;;;;;;;;21.30;65.60;;;;;;20725657;28;19921;-80
2021/08/05 16:50:27;;;;;;;;;;;21.30;65.50;;;;;;20727711;28;20261;-79
2021/08/05 17:00:28;;;;;;;;;;;21.30;65.30;;;;;;20759761;28;19909;-81
2021/08/05 17:10:29;;;;;;;;;;;21.40;65.30;;;;;;20761022;28;19952;-80
2021/08/05 17:20:30;;;;;;;;;;;21.40;65.20;;;;;;20744775;28;20275;-80
2021/08/05 17:30:30;;;;;;;;;;;21.40;65.10;;;;;;20729400;28;19924;-79
2021/08/05 17:40:31;;;;;;;;;;;21.40;65.00;;;;;;20741992;28;19913;-75
2021/08/05 17:50:31;;;;;;;;;;;21.20;64.80;;;;;;20774546;28;19960;-79
2021/08/05 18:00:33;;;;;;;;;;;21.30;64.80;;;;;;20788632;28;19963;-73
2021/08/05 18:10:33;;;;;;;;;;;21.30;64.80;;;;;;20736839;28;19975;-71
2021/08/05 18:20:34;;;;;;;;;;;21.30;64.80;;;;;;20768310;28;19917;-72
2021/08/05 18:30:34;;;;;;;;;;;21.30;64.80;;;;;;20766905;28;19917;-77
2021/08/05 18:40:36;;;;;;;;;;;21.30;64.80;;;;;;20764842;28;19924;-77
2021/08/05 18:50:38;;;;;;;;;;;21.30;64.80;;;;;;20750971;28;20379;-77
2021/08/05 19:00:39;;;;;;;;;;;21.30;64.80;;;;;;20765812;28;19955;-77
2021/08/05 19:10:39;;;;;;;;;;;21.30;64.80;;;;;;20715507;28;19980;-78
2021/08/05 19:20:40;;;;;;;;;;;21.30;64.80;;;;;;20731595;28;19913;-78
2021/08/05 19:30:41;;;;;;;;;;;21.30;64.80;;;;;;20731233;28;19920;-77
2021/08/05 19:40:41;;;;;;;;;;;21.30;64.80;;;;;;20712466;28;19917;-80
2021/08/05 19:50:42;;;;;;;;;;;21.30;64.90;;;;;;20744327;28;19917;-80
2021/08/05 20:00:42;;;;;;;;;;;21.30;65.00;;;;;;20726457;28;19944;-80
2021/08/05 20:10:44;;;;;;;;;;;21.30;65.00;;;;;;20776208;28;19920;-79
2021/08/05 20:20:44;;;;;;;;;;;21.30;65.10;;;;;;20709627;28;19960;-78
2021/08/05 20:30:47;;;;;;;;;;;21.20;65.10;;;;;;20741524;28;20252;-79
2021/08/05 20:40:48;;;;;;;;;;;21.30;65.20;;;;;;20740147;28;19913;-79
2021/08/05 20:50:49;;;;;;;;;;;21.20;65.20;;;;;;20740935;28;19922;-80
2021/08/05 21:00:51;;;;;;;;;;;21.20;65.30;;;;;;20725072;28;20000;-79
2021/08/05 21:10:53;;;;;;;;;;;21.20;65.30;;;;;;20751067;28;19963;-79
2021/08/05 21:20:53;;;;;;;;;;;21.20;66.00;;;;;;20739503;28;19921;-80
2021/08/05 21:30:53;;;;;;;;;;;21.20;65.40;;;;;;20740501;28;19935;-80
2021/08/05 21:40:54;;;;;;;;;;;21.20;65.50;;;;;;20757120;28;19923;-80
2021/08/05 21:50:56;;;;;;;;;;;21.20;65.60;;;;;;20755587;28;20371;-80
2021/08/05 22:00:56;;;;;;;;;;;21.10;65.60;;;;;;20754309;28;19921;-79
2021/08/05 22:10:57;;;;;;;;;;;21.20;65.80;;;;;;20737833;28;19917;-79
2021/08/05 22:20:58;;;;;;;;;;;21.20;65.80;;;;;;20736907;28;19919;-77
2021/08/05 22:30:58;;;;;;;;;;;21.20;65.90;;;;;;20719643;28;19913;-77
2021/08/05 22:41:00;;;;;;;;;;;21.10;65.90;;;;;;20735232;28;19917;-77
2021/08/05 22:51:01;;;;;;;;;;;21.10;65.90;;;;;;20734777;28;19957;-77
2021/08/05 23:01:01;;;;;;;;;;;21.10;65.80;;;;;;20733969;28;20433;-77
2021/08/05 23:11:02;;;;;;;;;;;21.10;65.70;;;;;;20732957;28;19919;-77
2021/08/05 23:21:02;;;;;;;;;;;21.10;65.80;;;;;;20731597;28;19940;-77
2021/08/05 23:31:03;;;;;;;;;;;21.10;65.80;;;;;;20730488;28;19914;-78
2021/08/05 23:41:03;;;;;;;;;;;21.10;65.70;;;;;;20714514;28;19913;-76
2021/08/05 23:51:06;;;;;;;;;;;21.20;65.70;;;;;;20745546;28;19971;-77
